createdAt,value
2022-07-30T00:04:52.709Z,101717.97
2022-07-30T00:09:56.553Z,101717.84
2022-07-30T00:15:00.274Z,101710.75
2022-07-30T00:20:06.301Z,101707.06
2022-07-30T00:25:10.573Z,101703.44
2022-07-30T00:30:14.823Z,101707.69
2022-07-30T00:35:21.122Z,101700.47
2022-07-30T00:40:25.057Z,101698.34
2022-07-30T00:45:28.916Z,101693.06
2022-07-30T00:50:34.190Z,101692.13
2022-07-30T00:55:39.169Z,101698.00
2022-07-30T01:00:43.240Z,101694.31
2022-07-30T01:05:48.673Z,101693.22
2022-07-30T01:10:52.408Z,101702.72
2022-07-30T01:15:58.102Z,101701.72
2022-07-30T01:21:13.345Z,101696.47
2022-07-30T01:26:22.195Z,101696.97
2022-07-30T01:31:28.369Z,101690.84
2022-07-30T01:36:33.652Z,101688.97
2022-07-30T01:41:39.672Z,101685.25
2022-07-30T01:46:43.734Z,101693.75
2022-07-30T01:51:49.894Z,101686.47
2022-07-30T01:56:57.683Z,101695.00
2022-07-30T02:02:03.156Z,101689.50
2022-07-30T02:07:14.839Z,101689.56
2022-07-30T02:12:29.457Z,101697.22
2022-07-30T02:17:42.935Z,101697.06
2022-07-30T02:22:50.084Z,101701.31
2022-07-30T02:28:06.136Z,101693.31
2022-07-30T02:33:12.746Z,101698.41
2022-07-30T02:38:18.803Z,101699.13
2022-07-30T02:43:27.539Z,101697.31
2022-07-30T02:48:42.079Z,101695.41
2022-07-30T02:53:48.549Z,101697.03
2022-07-30T02:58:55.325Z,101705.59
2022-07-30T03:04:00.010Z,101696.81
2022-07-30T03:09:05.419Z,101703.63
2022-07-30T03:14:12.163Z,101707.94
2022-07-30T03:19:18.331Z,101711.41
2022-07-30T03:24:25.554Z,101706.81
2022-07-30T03:29:32.455Z,101711.91
2022-07-30T03:34:36.817Z,101711.75
2022-07-30T03:39:41.699Z,101709.78
2022-07-30T03:44:47.562Z,101714.94
2022-07-30T03:49:52.363Z,101715.47
2022-07-30T03:54:56.352Z,101712.50
2022-07-30T04:00:02.704Z,101721.13
2022-07-30T04:05:18.077Z,101730.62
2022-07-30T04:10:22.747Z,101728.87
2022-07-30T04:16:05.995Z,101735.63
2022-07-30T04:20:55.739Z,101730.00
2022-07-30T04:26:00.657Z,101739.47
2022-07-30T04:31:06.647Z,101736.88
2022-07-30T04:36:13.895Z,101742.97
2022-07-30T04:41:20.153Z,101751.69
2022-07-30T04:46:27.349Z,101759.72
2022-07-30T04:51:35.179Z,101759.72
2022-07-30T04:56:39.452Z,101771.19
2022-07-30T05:01:58.388Z,101774.03
2022-07-30T05:07:04.321Z,101771.19
2022-07-30T05:12:09.139Z,101771.19
2022-07-30T05:17:14.243Z,101770.59
2022-07-30T05:22:17.954Z,101781.00
2022-07-30T05:27:21.747Z,101777.53
2022-07-30T05:32:27.195Z,101785.44
2022-07-30T05:37:31.234Z,101782.81
2022-07-30T05:42:35.132Z,101785.59
2022-07-30T05:47:40.264Z,101781.50
2022-07-30T05:52:43.997Z,101792.03
2022-07-30T05:57:50.216Z,101798.91
2022-07-30T06:02:55.839Z,101791.28
2022-07-30T06:08:02.539Z,101795.16
2022-07-30T06:13:06.825Z,101788.56
2022-07-30T06:18:11.970Z,101793.28
2022-07-30T06:23:16.823Z,101802.47
2022-07-30T06:28:39.006Z,101802.09
2022-07-30T06:33:46.561Z,101808.56
2022-07-30T06:38:51.253Z,101795.94
2022-07-30T06:43:56.709Z,101800.75
2022-07-30T06:49:02.794Z,101805.50
2022-07-30T06:54:08.452Z,101803.28
2022-07-30T06:59:27.592Z,101807.47
2022-07-30T07:04:43.399Z,101802.09
2022-07-30T07:09:47.406Z,101805.19
2022-07-30T07:14:54.314Z,101813.16
2022-07-30T07:20:02.326Z,101811.44
2022-07-30T07:25:08.664Z,101817.69
2022-07-30T07:30:13.513Z,101807.50
2022-07-30T07:35:18.837Z,101806.97
2022-07-30T07:40:24.786Z,101814.19
2022-07-30T07:45:28.946Z,101814.25
2022-07-30T07:50:34.790Z,101818.22
2022-07-30T07:55:39.608Z,101823.81
2022-07-30T08:00:43.569Z,101816.19
2022-07-30T08:06:01.779Z,101814.69
2022-07-30T08:11:16.017Z,101817.63
2022-07-30T08:16:23.108Z,101818.00
2022-07-30T08:21:30.827Z,101819.13
2022-07-30T08:26:34.589Z,101820.34
2022-07-30T08:31:38.372Z,101813.69
2022-07-30T08:36:43.693Z,101813.09
2022-07-30T08:41:47.944Z,101814.19
2022-07-30T08:46:53.378Z,101805.72
2022-07-30T08:51:59.179Z,101808.00
2022-07-30T08:57:06.308Z,101807.66
2022-07-30T09:02:13.041Z,101797.41
2022-07-30T09:07:20.201Z,101799.63
2022-07-30T09:12:38.984Z,101810.53
2022-07-30T09:17:48.418Z,101828.12
2022-07-30T09:22:55.616Z,101823.87
2022-07-30T09:28:02.307Z,101817.06
2022-07-30T09:33:40.597Z,101823.34
2022-07-30T09:38:51.612Z,101819.06
2022-07-30T09:43:59.828Z,101813.81
2022-07-30T09:49:15.775Z,101808.84
2022-07-30T09:54:21.327Z,101802.87
2022-07-30T09:59:35.261Z,101810.03
2022-07-30T10:04:41.016Z,101812.87
2022-07-30T10:09:49.147Z,101812.97
2022-07-30T10:14:55.129Z,101801.62
2022-07-30T10:19:59.836Z,101792.75
2022-07-30T10:25:23.053Z,101795.06
2022-07-30T10:30:35.293Z,101801.62
2022-07-30T10:35:39.540Z,101797.81
2022-07-30T10:40:51.807Z,101797.31
2022-07-30T10:46:04.494Z,101799.22
2022-07-30T10:51:09.360Z,101799.00
2022-07-30T10:56:25.763Z,101798.78
2022-07-30T11:02:03.798Z,101809.66
2022-07-30T11:07:29.332Z,101801.81
2022-07-30T11:12:55.574Z,101791.34
2022-07-30T11:18:12.043Z,101793.69
2022-07-30T11:23:37.673Z,101790.41
2022-07-30T11:28:49.615Z,101793.03
2022-07-30T11:33:53.583Z,101785.22
2022-07-30T11:39:06.933Z,101784.66
2022-07-30T11:44:29.977Z,101793.09
2022-07-30T11:49:36.733Z,101785.97
2022-07-30T11:54:52.872Z,101781.56
2022-07-30T11:59:58.487Z,101780.03
2022-07-30T12:05:02.207Z,101785.53
2022-07-30T12:10:16.717Z,101782.19
2022-07-30T12:15:33.990Z,101784.16
2022-07-30T12:20:38.005Z,101781.59
2022-07-30T12:25:47.871Z,101791.47
2022-07-30T12:30:57.450Z,101780.81
2022-07-30T12:36:02.047Z,101781.69
2022-07-30T12:41:06.894Z,101774.59
2022-07-30T12:46:15.040Z,101773.63
2022-07-30T12:51:19.772Z,101776.31
2022-07-30T12:56:27.152Z,101774.53
2022-07-30T13:01:47.011Z,101783.28
2022-07-30T13:07:08.015Z,101768.91
2022-07-30T13:12:13.362Z,101773.88
2022-07-30T13:17:19.571Z,101761.72
2022-07-30T13:22:23.324Z,101776.31
2022-07-30T13:27:27.027Z,101766.59
2022-07-30T13:32:32.906Z,101755.19
2022-07-30T13:37:38.386Z,101744.25
2022-07-30T13:42:42.503Z,101757.53
2022-07-30T13:47:48.442Z,101757.44
2022-07-30T13:52:52.310Z,101760.78
2022-07-30T13:57:56.054Z,101757.31
2022-07-30T14:03:02.135Z,101752.13
2022-07-30T14:08:07.772Z,101750.34
2022-07-30T14:13:19.097Z,101741.22
2022-07-30T14:18:26.324Z,101736.41
2022-07-30T14:23:31.089Z,101748.03
2022-07-30T14:28:34.922Z,101730.97
2022-07-30T14:33:40.083Z,101729.00
2022-07-30T14:38:44.365Z,101717.34
2022-07-30T14:43:48.094Z,101715.41
2022-07-30T14:48:53.208Z,101717.34
2022-07-30T14:53:59.063Z,101702.22
2022-07-30T14:59:02.910Z,101697.16
2022-07-30T15:04:09.537Z,101695.44
2022-07-30T15:09:13.296Z,101707.34
2022-07-30T15:14:17.246Z,101705.88
2022-07-30T15:19:26.796Z,101702.78
2022-07-30T15:24:30.551Z,101709.16
2022-07-30T15:29:34.421Z,101704.16
2022-07-30T15:34:39.520Z,101704.94
2022-07-30T15:39:43.286Z,101708.50
2022-07-30T15:44:48.987Z,101702.31
2022-07-30T15:49:54.362Z,101705.06
2022-07-30T15:54:58.168Z,101704.28
2022-07-30T16:00:01.881Z,101703.47
2022-07-30T16:05:16.608Z,101697.31
2022-07-30T16:10:20.303Z,101702.62
2022-07-30T16:15:25.640Z,101697.44
2022-07-30T16:20:30.726Z,101696.47
2022-07-30T16:25:34.566Z,101693.69
2022-07-30T16:30:50.976Z,101694.44
2022-07-30T16:35:56.795Z,101690.91
2022-07-30T16:41:00.571Z,101688.22
2022-07-30T16:46:04.380Z,101690.91
2022-07-30T16:51:09.456Z,101683.09
2022-07-30T16:56:14.126Z,101677.09
2022-07-30T17:01:17.941Z,101685.00
2022-07-30T17:06:23.164Z,101675.38
2022-07-30T17:11:46.752Z,101679.88
2022-07-30T17:16:51.425Z,101675.53
2022-07-30T17:21:56.514Z,101675.66
2022-07-30T17:27:00.248Z,101673.06
2022-07-30T17:32:04.456Z,101673.97
2022-07-30T17:37:09.894Z,101667.00
2022-07-30T17:42:13.972Z,101660.91
2022-07-30T17:47:17.956Z,101660.06
2022-07-30T17:52:26.718Z,101658.38
2022-07-30T17:57:30.941Z,101667.28
2022-07-30T18:02:34.686Z,101672.56
2022-07-30T18:07:39.806Z,101660.25
2022-07-30T18:12:49.040Z,101647.91
2022-07-30T18:17:53.463Z,101658.53
2022-07-30T18:22:58.511Z,101652.41
2022-07-30T18:28:03.798Z,101665.66
2022-07-30T18:33:07.567Z,101675.44
2022-07-30T18:38:14.312Z,101664.84
2022-07-30T18:43:19.000Z,101654.28
2022-07-30T18:48:23.298Z,101656.03
2022-07-30T18:53:28.463Z,101654.28
2022-07-30T18:58:32.631Z,101657.84
2022-07-30T19:03:36.432Z,101662.25
2022-07-30T19:08:41.497Z,101662.28
2022-07-30T19:13:45.231Z,101669.38
2022-07-30T19:18:48.998Z,101661.44
2022-07-30T19:23:54.141Z,101662.28
2022-07-30T19:28:58.803Z,101658.78
2022-07-30T19:34:02.879Z,101658.78
2022-07-30T19:39:11.040Z,101656.13
2022-07-30T19:44:19.931Z,101659.63
2022-07-30T19:49:23.712Z,101655.25
2022-07-30T19:54:34.879Z,101656.97
2022-07-30T19:59:57.868Z,101655.22
2022-07-30T20:05:05.959Z,101657.88
2022-07-30T20:10:12.631Z,101658.75
2022-07-30T20:15:16.460Z,101657.88
2022-07-30T20:20:26.498Z,101658.72
2022-07-30T20:25:37.398Z,101660.50
2022-07-30T20:30:41.333Z,101658.72
2022-07-30T20:35:45.349Z,101671.84
2022-07-30T20:40:52.771Z,101670.97
2022-07-30T20:45:56.652Z,101672.72
2022-07-30T20:51:00.529Z,101677.09
2022-07-30T20:56:06.226Z,101677.97
2022-07-30T21:01:17.713Z,101678.81
2022-07-30T21:06:22.620Z,101677.91
2022-07-30T21:11:32.013Z,101665.59
2022-07-30T21:16:41.417Z,101661.19
2022-07-30T21:21:48.714Z,101660.25
2022-07-30T21:26:53.931Z,101660.22
2022-07-30T21:32:02.664Z,101664.56
2022-07-30T21:37:07.347Z,101669.75
2022-07-30T21:42:12.764Z,101667.87
2022-07-30T21:47:16.557Z,101673.06
2022-07-30T21:52:20.265Z,101674.69
2022-07-30T21:57:26.706Z,101671.13
2022-07-30T22:02:34.025Z,101664.00
2022-07-30T22:07:38.280Z,101662.97
2022-07-30T22:12:43.716Z,101662.12
2022-07-30T22:17:58.463Z,101668.22
2022-07-30T22:23:11.307Z,101669.94
2022-07-30T22:28:16.799Z,101667.22
2022-07-30T22:33:20.905Z,101671.59
2022-07-30T22:38:24.798Z,101670.63
2022-07-30T22:43:35.609Z,101665.28
2022-07-30T22:48:44.949Z,101673.19
2022-07-30T22:54:11.403Z,101674.91
2022-07-30T22:59:14.095Z,101680.13
2022-07-30T23:04:18.852Z,101682.72
2022-07-30T23:09:22.783Z,101681.75
2022-07-30T23:14:28.768Z,101683.44
2022-07-30T23:19:32.876Z,101679.88
2022-07-30T23:24:36.682Z,101667.53
2022-07-30T23:29:41.753Z,101661.31
2022-07-30T23:34:45.440Z,101654.22
2022-07-30T23:39:49.295Z,101640.13
2022-07-30T23:44:54.400Z,101634.81
2022-07-30T23:49:58.252Z,101626.00
2022-07-30T23:55:02.006Z,101616.31
